Title
Si parla di Noi: rivista Volo a Vela N.358/2017
              
Filmato in campo del 21-05-2017


Corsi per pilota di aliante di primo e secondo periodo





Facebook
20/07/2018
Michele D.: dalle 1610
21/07/2018
Roberto Z.: dalle14.30
Michele D.: dalle 14
22/07/2018
Roberto Z.: dalle 10.00
Michele D.: dalle 14
28/07/2018
Paolo S.: dalle ore 14:00 con due ospiti.
29/07/2018
Paolo S.: dalle 14:00 con un'ospite
21/07/2018
Federico d.: da inizio attivita (senza accento)
22/07/2018
Giacomo B.: Dall ora di pranzo a sera
28/07/2018
Luciano F.: Dalle 11.00 alle 17.00
LIPE 191250Z 01003KT 310V080 CAVOK 32/16 Q1012 >>
LIMP 191150Z VRB03KT CAVOK 31/16 Q1014 >>
LIVC 191155Z 03004KT 9999 SCT003 16/11 Q1026 RMK SCT MON LIB VAL NIL VIS MIN 9999 >>
LIPE 191100Z 1912/2012 VRB05KT CAVOK >>
LIMP 191100Z 1912/2012 11005KT CAVOK >>
Logo
Aero Club Volovelistico Tricolore – Castellazzo (Reggio Emilia)
Via Enrico Fermi, 61 - 42123 Reggio Emilia - C.F. 91107430356 - PEC: avtricolore@pec.it
Associazione Sportiva Dilettantistica Federata Aero Club Italia

Questo sito non fa uso di cookies a fini di profilazione o di marketing e non registra le abitudini dei visitatori.
Per maggiori informazioni consulta la nostra informativa su privacy e cookies
Sviluppato da Bruno Bazzani. Contenuti ed immagini a cura dei Soci Aeroclub Tricolore.
Flypink